首页
METAR-TAF:

METAR-TAF

机场 :

基尔, 德国

纬度: 54-23N, 经度: 010-10E, 海拔: 31米

当前天气观测

该预报发布于17分钟前的20:50 UTC
风速5节,风向
温度 19°C
湿度 78%
气压 1021 hPa
能见度10公里或以上

METAR: EDHK 112050Z AUTO 08005KT 9999 // NCD 19/15 Q1021

时间: 23:07 (21:07 UTC)

预报

该预报发布于7小时和7分钟前的14:00 UTC
预报有效从11日的 15点(UTC)到 11日的 19点(UTC)
风速11节,风向
能见度10公里或以上
1500米以下无云,无积雨云

TAF: EDHK 111400Z 1115/1119 08011KT CAVOK

超过4000个机场的气象观测和天气预报(METAR&TAF报告)。

可查询的气象台以黄色和红色小点在地图上表示。

将鼠标移到小点上方,可查看气象台名称。

然后点击查看天气观测和预报。

如需切换地图:点击带黑十字的绿色按钮放大地图;点击带横线的绿色按钮缩小地图;或者点击绿色箭头查看邻近地区的地图。


METAR-TAF: